Time;durP1;ratioP1;P1;durP2;ratioP2;P2;SDS_P1;SDS_P2;PMS_P1;PMS_P2;Temp;Humidity;BMP_temperature;BMP_pressure;BME280_temperature;BME280_humidity;BME280_pressure;Samples;Min_cycle;Max_cycle;Signal;HPM_P1;HPM_P2
2023/12/14 00:02:08;;;;;;;;;;;;;;;;;;5023932;28;59497;-70
2023/12/14 00:04:33;;;;;;;;;;;;;;;;;;5027553;28;59235;-72
2023/12/14 00:06:58;;;;;;;;;;;;;;;;;;5027561;28;60201;-70
2023/12/14 00:09:24;;;;;;;;;;;;;;;;;;5027124;28;59212;-72
2023/12/14 00:11:49;;;;;;;;;;;;;;;;;;5025418;28;59363;-71
2023/12/14 00:14:14;;;;;;;;;;;;;;;;;;5024895;28;59444;-71
2023/12/14 00:16:39;;;;;;;;;;;;;;;;;;5026120;28;59343;-74
2023/12/14 00:19:04;;;;;;;;;;;;;;;;;;5016822;28;87614;-71
2023/12/14 00:21:29;;;;;;;;;;;;;;;;;;5025988;28;59297;-71
2023/12/14 00:23:54;;;;;;;;;;;;;;;;;;5027213;28;59247;-71
2023/12/14 00:26:19;;;;;;;;;;;;;;;;;;5026678;28;60375;-71
2023/12/14 00:28:45;;;;;;;;;;;;;;;;;;5025747;28;59236;-71
2023/12/14 00:31:10;;;;;;;;;;;;;;;;;;5025692;28;59633;-70
2023/12/14 00:33:35;;;;;;;;;;;;;;;;;;5024996;28;59628;-71
2023/12/14 00:36:00;;;;;;;;;;;;;;;;;;5027779;28;59187;-71
2023/12/14 00:38:25;;;;;;;;;;;;;;;;;;5026382;28;60245;-71
2023/12/14 00:40:50;;;;;;;;;;;;;;;;;;5024236;28;59276;-72
2023/12/14 00:43:15;;;;;;;;;;;;;;;;;;5025321;28;59223;-71
2023/12/14 00:45:41;;;;;;;;;;;;;;;;;;5024121;28;61232;-72
2023/12/14 00:48:06;;;;;;;;;;;;;;;;;;5025678;28;59234;-71
2023/12/14 00:50:31;;;;;;;;;;;;;;;;;;5025325;28;60989;-72
2023/12/14 00:52:56;;;;;;;;;;;;;;;;;;5024181;28;59539;-71
2023/12/14 00:55:21;;;;;;;;;;;;;;;;;;5025179;28;59032;-70
2023/12/14 00:57:46;;;;;;;;;;;;;;;;;;5025656;28;59778;-70
2023/12/14 01:00:12;;;;;;;;;;;;;;;;;;5037068;28;59831;-72
2023/12/14 01:02:37;;;;;;;;;;;;;;;;;;5009624;28;59258;-70
2023/12/14 01:05:02;;;;;;;;;;;;;;;;;;5005532;28;60194;-72
2023/12/14 01:07:28;;;;;;;;;;;;;;;;;;5004620;28;59462;-71
2023/12/14 01:09:53;;;;;;;;;;;;;;;;;;5003650;28;59216;-73
2023/12/14 01:12:18;;;;;;;;;;;;;;;;;;5003881;28;59545;-71
2023/12/14 01:14:43;;;;;;;;;;;;;;;;;;5005268;28;59354;-71
2023/12/14 01:17:08;;;;;;;;;;;;;;;;;;5006061;28;59475;-70
2023/12/14 01:19:33;;;;;;;;;;;;;;;;;;5002701;28;59457;-70
2023/12/14 01:21:58;;;;;;;;;;;;;;;;;;5004555;28;59149;-71
2023/12/14 01:24:23;;;;;;;;;;;;;;;;;;5005451;28;59730;-71
2023/12/14 01:26:48;;;;;;;;;;;;;;;;;;5004194;28;59923;-70
2023/12/14 01:29:14;;;;;;;;;;;;;;;;;;5004899;28;59240;-69
2023/12/14 01:31:39;;;;;;;;;;;;;;;;;;5003925;28;60497;-70
2023/12/14 01:34:04;;;;;;;;;;;;;;;;;;5004924;28;59383;-70
2023/12/14 01:36:29;;;;;;;;;;;;;;;;;;5004288;28;60117;-70
2023/12/14 01:38:54;;;;;;;;;;;;;;;;;;5005528;28;59195;-71
2023/12/14 01:41:19;;;;;;;;;;;;;;;;;;5004496;28;59259;-70
2023/12/14 01:43:44;;;;;;;;;;;;;;;;;;5004362;28;60122;-69
2023/12/14 01:46:10;;;;;;;;;;;;;;;;;;5003375;28;59418;-69
2023/12/14 01:48:35;;;;;;;;;;;;;;;;;;5002772;28;59350;-69
2023/12/14 01:51:00;;;;;;;;;;;;;;;;;;5003422;28;59863;-68
2023/12/14 01:53:25;;;;;;;;;;;;;;;;;;5003484;28;59469;-69
2023/12/14 01:55:50;;;;;;;;;;;;;;;;;;5001719;28;60362;-69
2023/12/14 01:58:15;;;;;;;;;;;;;;;;;;5002199;28;59493;-69
2023/12/14 02:00:40;;;;;;;;;;;;;;;;;;5003462;28;59264;-68
2023/12/14 02:03:05;;;;;;;;;;;;;;;;;;5002871;28;60061;-69
2023/12/14 02:05:30;;;;;;;;;;;;;;;;;;5000975;28;59903;-70
2023/12/14 02:07:56;;;;;;;;;;;;;;;;;;5002377;28;59328;-69
2023/12/14 02:10:21;;;;;;;;;;;;;;;;;;5002265;28;61326;-68
2023/12/14 02:12:47;;;;;;;;;;;;;;;;;;5001941;28;59486;-68
2023/12/14 02:15:12;;;;;;;;;;;;;;;;;;5003738;28;59256;-71
2023/12/14 02:17:37;;;;;;;;;;;;;;;;;;5000533;28;59331;-71
2023/12/14 02:20:02;;;;;;;;;;;;;;;;;;5001941;28;59245;-71
2023/12/14 02:22:27;;;;;;;;;;;;;;;;;;5001390;28;60268;-71
2023/12/14 02:24:52;;;;;;;;;;;;;;;;;;5000905;28;59283;-69
2023/12/14 02:27:17;;;;;;;;;;;;;;;;;;5002425;28;59253;-68
2023/12/14 02:29:42;;;;;;;;;;;;;;;;;;5002595;28;60233;-68
2023/12/14 02:32:07;;;;;;;;;;;;;;;;;;5000604;28;59568;-69
2023/12/14 02:34:33;;;;;;;;;;;;;;;;;;5004540;28;59300;-70
2023/12/14 02:36:58;;;;;;;;;;;;;;;;;;5004801;28;60119;-68
2023/12/14 02:39:23;;;;;;;;;;;;;;;;;;5004007;28;59668;-69
2023/12/14 02:41:48;;;;;;;;;;;;;;;;;;5003197;28;62213;-68
2023/12/14 02:44:13;;;;;;;;;;;;;;;;;;5003563;28;59695;-68
2023/12/14 02:46:38;;;;;;;;;;;;;;;;;;5003978;28;59196;-68
2023/12/14 02:49:03;;;;;;;;;;;;;;;;;;5005489;28;61216;-69
2023/12/14 02:51:28;;;;;;;;;;;;;;;;;;5002574;28;59466;-68
2023/12/14 02:53:53;;;;;;;;;;;;;;;;;;5003460;28;59299;-70
2023/12/14 02:56:19;;;;;;;;;;;;;;;;;;5000262;28;60387;-68
2023/12/14 02:58:44;;;;;;;;;;;;;;;;;;5002349;28;59209;-69
2023/12/14 03:01:09;;;;;;;;;;;;;;;;;;5001838;28;59286;-69
2023/12/14 03:03:34;;;;;;;;;;;;;;;;;;5001618;28;59215;-69
2023/12/14 03:05:59;;;;;;;;;;;;;;;;;;5003229;28;59206;-68
2023/12/14 03:08:24;;;;;;;;;;;;;;;;;;5002730;28;59225;-67
2023/12/14 03:10:49;;;;;;;;;;;;;;;;;;4999868;28;58634;-67
2023/12/14 03:13:15;;;;;;;;;;;;;;;;;;5002525;28;59354;-67
2023/12/14 03:15:40;;;;;;;;;;;;;;;;;;5001861;28;59259;-70
2023/12/14 03:18:05;;;;;;;;;;;;;;;;;;5003373;28;59781;-68
2023/12/14 03:20:30;;;;;;;;;;;;;;;;;;5001736;28;59579;-68
2023/12/14 03:22:55;;;;;;;;;;;;;;;;;;5004145;28;59852;-67
2023/12/14 03:25:20;;;;;;;;;;;;;;;;;;5003850;28;59541;-67
2023/12/14 03:27:45;;;;;;;;;;;;;;;;;;5004603;28;59172;-68
2023/12/14 03:30:10;;;;;;;;;;;;;;;;;;5005544;28;59199;-68
2023/12/14 03:32:36;;;;;;;;;;;;;;;;;;5007330;28;58656;-67
2023/12/14 03:35:01;;;;;;;;;;;;;;;;;;5007019;28;59850;-69
2023/12/14 03:37:26;;;;;;;;;;;;;;;;;;5006574;28;59529;-70
2023/12/14 03:39:51;;;;;;;;;;;;;;;;;;5006398;28;59292;-71
2023/12/14 03:42:16;;;;;;;;;;;;;;;;;;5006242;28;59240;-70
2023/12/14 03:44:41;;;;;;;;;;;;;;;;;;5005463;28;58488;-70
2023/12/14 03:47:06;;;;;;;;;;;;;;;;;;5008251;28;59280;-70
2023/12/14 03:49:31;;;;;;;;;;;;;;;;;;5004923;28;59723;-70
2023/12/14 03:51:56;;;;;;;;;;;;;;;;;;5005558;28;59335;-70
2023/12/14 03:54:21;;;;;;;;;;;;;;;;;;5006076;28;59524;-71
2023/12/14 03:56:47;;;;;;;;;;;;;;;;;;5004299;28;59475;-70
2023/12/14 03:59:12;;;;;;;;;;;;;;;;;;5006060;28;59189;-70
2023/12/14 04:01:39;;;;;;;;;;;;;;;;;;5002291;28;59974;-70
2023/12/14 04:04:04;;;;;;;;;;;;;;;;;;5005283;28;59442;-70
2023/12/14 04:06:29;;;;;;;;;;;;;;;;;;5005708;28;60608;-70
2023/12/14 04:08:55;;;;;;;;;;;;;;;;;;5002841;28;59410;-71
2023/12/14 04:11:20;;;;;;;;;;;;;;;;;;5002320;28;59229;-70
2023/12/14 04:13:45;;;;;;;;;;;;;;;;;;5006673;28;59296;-71
2023/12/14 04:16:10;;;;;;;;;;;;;;;;;;5004689;28;59274;-70
2023/12/14 04:18:35;;;;;;;;;;;;;;;;;;5006584;28;59185;-72
2023/12/14 04:21:00;;;;;;;;;;;;;;;;;;5004574;28;60211;-70
2023/12/14 04:23:26;;;;;;;;;;;;;;;;;;5005250;28;58455;-72
2023/12/14 04:25:52;;;;;;;;;;;;;;;;;;5002386;28;60171;-72
2023/12/14 04:28:17;;;;;;;;;;;;;;;;;;5004268;28;59345;-72
2023/12/14 04:30:42;;;;;;;;;;;;;;;;;;5002499;28;59194;-72
2023/12/14 04:33:07;;;;;;;;;;;;;;;;;;5005037;28;59199;-70
2023/12/14 04:35:36;;;;;;;;;;;;;;;;;;5007028;28;59257;-72
2023/12/14 04:38:01;;;;;;;;;;;;;;;;;;5003737;28;59223;-70
2023/12/14 04:40:26;;;;;;;;;;;;;;;;;;5004227;28;60231;-72
2023/12/14 04:42:51;;;;;;;;;;;;;;;;;;5006521;28;59598;-70
2023/12/14 04:45:17;;;;;;;;;;;;;;;;;;5003386;28;60025;-67
2023/12/14 04:47:42;;;;;;;;;;;;;;;;;;5005402;28;59571;-67
2023/12/14 04:50:07;;;;;;;;;;;;;;;;;;5004427;28;59127;-69
2023/12/14 04:52:33;;;;;;;;;;;;;;;;;;5013064;28;60421;-68
2023/12/14 04:54:58;;;;;;;;;;;;;;;;;;5025700;28;59262;-68
2023/12/14 04:57:23;;;;;;;;;;;;;;;;;;5025345;28;59284;-70
2023/12/14 04:59:48;;;;;;;;;;;;;;;;;;5025597;28;60175;-67
2023/12/14 05:02:13;;;;;;;;;;;;;;;;;;5024904;28;59247;-69
2023/12/14 05:04:38;;;;;;;;;;;;;;;;;;5025631;28;59271;-69
2023/12/14 05:07:03;;;;;;;;;;;;;;;;;;5025426;28;59281;-69
2023/12/14 05:09:28;;;;;;;;;;;;;;;;;;5026369;28;59241;-69
2023/12/14 05:11:53;;;;;;;;;;;;;;;;;;5026788;28;59659;-69
2023/12/14 05:14:19;;;;;;;;;;;;;;;;;;5025141;28;59554;-69
2023/12/14 05:16:44;;;;;;;;;;;;;;;;;;5025223;28;58437;-71
2023/12/14 05:19:09;;;;;;;;;;;;;;;;;;5024944;28;59143;-69
2023/12/14 05:21:34;;;;;;;;;;;;;;;;;;5024576;28;59199;-69
2023/12/14 05:23:59;;;;;;;;;;;;;;;;;;5026750;28;59269;-70
2023/12/14 05:26:24;;;;;;;;;;;;;;;;;;5025543;28;60307;-70
2023/12/14 05:28:49;;;;;;;;;;;;;;;;;;5024006;28;59103;-69
2023/12/14 05:31:14;;;;;;;;;;;;;;;;;;5024894;28;59746;-69
2023/12/14 05:33:39;;;;;;;;;;;;;;;;;;5024733;28;59251;-69
2023/12/14 05:36:08;;;;;;;;;;;;;;;;;;5026719;28;59305;-69
2023/12/14 05:38:33;;;;;;;;;;;;;;;;;;5024224;28;60356;-70
2023/12/14 05:40:58;;;;;;;;;;;;;;;;;;5024324;28;59316;-68
2023/12/14 05:43:23;;;;;;;;;;;;;;;;;;5024967;28;59229;-70
2023/12/14 05:45:49;;;;;;;;;;;;;;;;;;5024834;28;60337;-68
2023/12/14 05:48:14;;;;;;;;;;;;;;;;;;5026106;28;59483;-69
2023/12/14 05:50:39;;;;;;;;;;;;;;;;;;5025232;28;59277;-69
2023/12/14 05:53:04;;;;;;;;;;;;;;;;;;5022671;28;59398;-69
2023/12/14 05:55:29;;;;;;;;;;;;;;;;;;5023637;28;59260;-72
2023/12/14 05:57:56;;;;;;;;;;;;;;;;;;5025259;28;60190;-72
2023/12/14 06:00:21;;;;;;;;;;;;;;;;;;5024069;28;59177;-70
2023/12/14 06:02:46;;;;;;;;;;;;;;;;;;5024396;28;59240;-72
2023/12/14 06:05:11;;;;;;;;;;;;;;;;;;5024315;28;60405;-72
2023/12/14 06:07:37;;;;;;;;;;;;;;;;;;5022743;28;59226;-72
2023/12/14 06:10:02;;;;;;;;;;;;;;;;;;5023621;28;59387;-70
2023/12/14 06:12:27;;;;;;;;;;;;;;;;;;5024840;28;59336;-72
2023/12/14 06:14:52;;;;;;;;;;;;;;;;;;5024602;28;59426;-72
2023/12/14 06:17:17;;;;;;;;;;;;;;;;;;5024335;28;59919;-70
2023/12/14 06:19:42;;;;;;;;;;;;;;;;;;5024215;28;59422;-73
2023/12/14 06:22:08;;;;;;;;;;;;;;;;;;5023481;28;59319;-72
2023/12/14 06:24:33;;;;;;;;;;;;;;;;;;5023953;28;60118;-72
2023/12/14 06:26:58;;;;;;;;;;;;;;;;;;5024646;28;59454;-72
2023/12/14 06:29:23;;;;;;;;;;;;;;;;;;5024801;28;59140;-72
2023/12/14 06:31:48;;;;;;;;;;;;;;;;;;5022076;28;59389;-72
2023/12/14 06:34:13;;;;;;;;;;;;;;;;;;5024823;28;58441;-72
2023/12/14 06:36:38;;;;;;;;;;;;;;;;;;5024149;28;60381;-72
2023/12/14 06:39:03;;;;;;;;;;;;;;;;;;5022511;28;58807;-71
2023/12/14 06:41:28;;;;;;;;;;;;;;;;;;5023041;28;59179;-70
2023/12/14 06:43:53;;;;;;;;;;;;;;;;;;5022196;28;60129;-70
2023/12/14 06:46:18;;;;;;;;;;;;;;;;;;5022915;28;58542;-71
2023/12/14 06:48:44;;;;;;;;;;;;;;;;;;5023741;28;59291;-70
2023/12/14 06:51:09;;;;;;;;;;;;;;;;;;5022079;28;60223;-70
2023/12/14 06:53:34;;;;;;;;;;;;;;;;;;5024272;28;59249;-71
2023/12/14 06:55:59;;;;;;;;;;;;;;;;;;5023701;28;60297;-70
2023/12/14 06:58:24;;;;;;;;;;;;;;;;;;5022782;28;59263;-71
2023/12/14 07:00:49;;;;;;;;;;;;;;;;;;5023807;28;59289;-70
2023/12/14 07:03:15;;;;;;;;;;;;;;;;;;5025390;28;60324;-71
2023/12/14 07:05:40;;;;;;;;;;;;;;;;;;5020439;28;59370;-68
2023/12/14 07:08:05;;;;;;;;;;;;;;;;;;5024487;28;59254;-70
2023/12/14 07:10:30;;;;;;;;;;;;;;;;;;5023760;28;59397;-71
2023/12/14 07:12:55;;;;;;;;;;;;;;;;;;5023630;28;59918;-67
2023/12/14 07:15:20;;;;;;;;;;;;;;;;;;5024683;28;60262;-68
2023/12/14 07:17:45;;;;;;;;;;;;;;;;;;5022281;28;59433;-68
2023/12/14 07:20:11;;;;;;;;;;;;;;;;;;5022286;28;59359;-70
2023/12/14 07:22:36;;;;;;;;;;;;;;;;;;5022837;28;60202;-70
2023/12/14 07:25:01;;;;;;;;;;;;;;;;;;5023273;28;59263;-67
2023/12/14 07:27:26;;;;;;;;;;;;;;;;;;5024250;28;59212;-71
2023/12/14 07:29:51;;;;;;;;;;;;;;;;;;5023170;28;60393;-70
2023/12/14 07:32:16;;;;;;;;;;;;;;;;;;5021189;28;59556;-69
2023/12/14 07:34:41;;;;;;;;;;;;;;;;;;5023186;28;59251;-67
2023/12/14 07:37:06;;;;;;;;;;;;;;;;;;5021548;28;58479;-71
2023/12/14 07:39:31;;;;;;;;;;;;;;;;;;5021924;28;59218;-69
2023/12/14 07:41:56;;;;;;;;;;;;;;;;;;5021329;28;59726;-69
2023/12/14 07:44:22;;;;;;;;;;;;;;;;;;5022367;28;59236;-69
2023/12/14 07:46:47;;;;;;;;;;;;;;;;;;5018095;28;59640;-70
2023/12/14 07:49:12;;;;;;;;;;;;;;;;;;5021856;28;60740;-69
2023/12/14 07:51:37;;;;;;;;;;;;;;;;;;5021797;28;59375;-69
2023/12/14 07:54:04;;;;;;;;;;;;;;;;;;5022309;28;78040;-71
2023/12/14 07:56:29;;;;;;;;;;;;;;;;;;5022187;28;60287;-69
2023/12/14 07:58:54;;;;;;;;;;;;;;;;;;5022653;28;59157;-72
2023/12/14 08:01:20;;;;;;;;;;;;;;;;;;5022099;28;59637;-71
2023/12/14 08:03:46;;;;;;;;;;;;;;;;;;5023111;28;59296;-70
2023/12/14 08:06:11;;;;;;;;;;;;;;;;;;5022812;28;58502;-72
2023/12/14 08:08:37;;;;;;;;;;;;;;;;;;5019372;28;59268;-73
2023/12/14 08:11:03;;;;;;;;;;;;;;;;;;5020910;28;59204;-72
2023/12/14 08:13:28;;;;;;;;;;;;;;;;;;5022016;28;59152;-72
2023/12/14 08:15:53;;;;;;;;;;;;;;;;;;5020915;28;60399;-72
2023/12/14 08:18:18;;;;;;;;;;;;;;;;;;5027084;28;59060;-72
2023/12/14 08:20:43;;;;;;;;;;;;;;;;;;5026170;28;60500;-70
2023/12/14 08:23:08;;;;;;;;;;;;;;;;;;5025514;28;59416;-71
2023/12/14 08:25:33;;;;;;;;;;;;;;;;;;5025835;28;59266;-70
2023/12/14 08:27:58;;;;;;;;;;;;;;;;;;5026400;28;60266;-70
2023/12/14 08:30:24;;;;;;;;;;;;;;;;;;5023913;28;58642;-70
2023/12/14 08:32:49;;;;;;;;;;;;;;;;;;5023897;28;59189;-70
2023/12/14 08:35:14;;;;;;;;;;;;;;;;;;5024275;28;59295;-72
2023/12/14 08:37:39;;;;;;;;;;;;;;;;;;5026858;28;59444;-72
2023/12/14 08:40:04;;;;;;;;;;;;;;;;;;5026325;28;60506;-72
2023/12/14 08:42:29;;;;;;;;;;;;;;;;;;5025139;28;58814;-72
2023/12/14 08:44:54;;;;;;;;;;;;;;;;;;5027600;28;59007;-72
2023/12/14 08:47:19;;;;;;;;;;;;;;;;;;5026327;28;60046;-72
2023/12/14 08:49:44;;;;;;;;;;;;;;;;;;5024935;28;59387;-72
2023/12/14 08:52:11;;;;;;;;;;;;;;;;;;5025549;28;59283;-72
2023/12/14 08:54:36;;;;;;;;;;;;;;;;;;5025009;28;59964;-70
2023/12/14 08:57:02;;;;;;;;;;;;;;;;;;5022723;28;59295;-70
2023/12/14 08:59:27;;;;;;;;;;;;;;;;;;5025385;28;59152;-72
2023/12/14 09:01:52;;;;;;;;;;;;;;;;;;5022663;28;59382;-72
2023/12/14 09:04:17;;;;;;;;;;;;;;;;;;5025730;28;59290;-70
2023/12/14 09:06:44;;;;;;;;;;;;;;;;;;5023119;28;61371;-70
2023/12/14 09:09:10;;;;;;;;;;;;;;;;;;5025593;28;58978;-71
2023/12/14 09:11:36;;;;;;;;;;;;;;;;;;5022590;28;59599;-70
2023/12/14 09:14:01;;;;;;;;;;;;;;;;;;5025332;28;60314;-71
2023/12/14 09:16:26;;;;;;;;;;;;;;;;;;5023049;28;59536;-71
2023/12/14 09:18:51;;;;;;;;;;;;;;;;;;5025731;28;59197;-68
2023/12/14 09:21:16;;;;;;;;;;;;;;;;;;5026452;28;59371;-68
2023/12/14 09:23:42;;;;;;;;;;;;;;;;;;5024833;28;59273;-67
2023/12/14 09:26:07;;;;;;;;;;;;;;;;;;5026536;28;59189;-70
2023/12/14 09:28:32;;;;;;;;;;;;;;;;;;5024442;28;59660;-70
2023/12/14 09:30:57;;;;;;;;;;;;;;;;;;5026160;28;59274;-70
2023/12/14 09:33:22;;;;;;;;;;;;;;;;;;5024898;28;60384;-70
2023/12/14 09:35:47;;;;;;;;;;;;;;;;;;5023744;28;60084;-70
2023/12/14 09:38:15;;;;;;;;;;;;;;;;;;5021383;28;59487;-73
2023/12/14 09:40:40;;;;;;;;;;;;;;;;;;5024689;28;60299;-70
2023/12/14 09:43:05;;;;;;;;;;;;;;;;;;5024517;28;59745;-70
2023/12/14 09:45:30;;;;;;;;;;;;;;;;;;5026015;28;59323;-70
2023/12/14 09:47:55;;;;;;;;;;;;;;;;;;5021900;28;59473;-71
2023/12/14 09:50:21;;;;;;;;;;;;;;;;;;5022576;28;59187;-70
2023/12/14 09:52:48;;;;;;;;;;;;;;;;;;5019888;28;60322;-73
2023/12/14 09:55:14;;;;;;;;;;;;;;;;;;5019547;28;59360;-70
2023/12/14 09:57:39;;;;;;;;;;;;;;;;;;5022426;28;59240;-73
2023/12/14 10:00:07;;;;;;;;;;;;;;;;;;5024615;28;61179;-71
2023/12/14 10:02:32;;;;;;;;;;;;;;;;;;5022344;28;59327;-70
2023/12/14 10:04:57;;;;;;;;;;;;;;;;;;5025028;28;59169;-73
2023/12/14 10:07:22;;;;;;;;;;;;;;;;;;5019862;28;59233;-70
2023/12/14 10:09:47;;;;;;;;;;;;;;;;;;5021929;28;58507;-70
2023/12/14 10:12:12;;;;;;;;;;;;;;;;;;5023656;28;60135;-70
2023/12/14 10:14:38;;;;;;;;;;;;;;;;;;5021174;28;59491;-70
2023/12/14 10:17:03;;;;;;;;;;;;;;;;;;5024349;28;59116;-70
2023/12/14 10:19:28;;;;;;;;;;;;;;;;;;5024413;28;59791;-70
2023/12/14 10:21:53;;;;;;;;;;;;;;;;;;5022857;28;59375;-70
2023/12/14 10:24:19;;;;;;;;;;;;;;;;;;5024524;28;59188;-71
2023/12/14 10:26:45;;;;;;;;;;;;;;;;;;5024825;28;60353;-69
2023/12/14 10:29:10;;;;;;;;;;;;;;;;;;5024438;28;59233;-68
2023/12/14 10:31:37;;;;;;;;;;;;;;;;;;5021372;28;60327;-68
2023/12/14 10:34:02;;;;;;;;;;;;;;;;;;5022022;28;59408;-67
2023/12/14 10:36:27;;;;;;;;;;;;;;;;;;5022259;28;58539;-67
2023/12/14 10:38:52;;;;;;;;;;;;;;;;;;5021490;28;60152;-68
2023/12/14 10:41:18;;;;;;;;;;;;;;;;;;5022721;28;59968;-67
2023/12/14 10:43:43;;;;;;;;;;;;;;;;;;5023505;28;59398;-71
2023/12/14 10:46:08;;;;;;;;;;;;;;;;;;5023270;28;59656;-69
2023/12/14 10:48:33;;;;;;;;;;;;;;;;;;5025599;28;59206;-70
2023/12/14 10:50:58;;;;;;;;;;;;;;;;;;5025039;28;60483;-68
2023/12/14 10:53:24;;;;;;;;;;;;;;;;;;5024827;28;59379;-69
2023/12/14 10:55:51;;;;;;;;;;;;;;;;;;5023396;28;59170;-68
2023/12/14 10:58:16;;;;;;;;;;;;;;;;;;5022624;28;60986;-68
2023/12/14 11:00:41;;;;;;;;;;;;;;;;;;5019000;28;58930;-69
2023/12/14 11:03:06;;;;;;;;;;;;;;;;;;5022541;28;58491;-68
2023/12/14 11:05:32;;;;;;;;;;;;;;;;;;5020960;28;60638;-67
2023/12/14 11:08:00;;;;;;;;;;;;;;;;;;5023446;28;59849;-69
2023/12/14 11:10:25;;;;;;;;;;;;;;;;;;5024235;28;60245;-70
2023/12/14 11:12:51;;;;;;;;;;;;;;;;;;5022391;28;59200;-68
2023/12/14 11:15:16;;;;;;;;;;;;;;;;;;5025174;28;59226;-68
2023/12/14 11:17:41;;;;;;;;;;;;;;;;;;5020023;28;61988;-68
2023/12/14 11:20:06;;;;;;;;;;;;;;;;;;5010018;28;59347;-67
2023/12/14 11:22:32;;;;;;;;;;;;;;;;;;5000889;28;59334;-69
2023/12/14 11:24:57;;;;;;;;;;;;;;;;;;5004595;28;60342;-67
2023/12/14 11:27:22;;;;;;;;;;;;;;;;;;5003106;28;59327;-68
2023/12/14 11:29:47;;;;;;;;;;;;;;;;;;5004513;28;59134;-69
2023/12/14 11:32:12;;;;;;;;;;;;;;;;;;5000977;28;58925;-68
2023/12/14 11:34:37;;;;;;;;;;;;;;;;;;5003581;28;58509;-69
2023/12/14 11:37:02;;;;;;;;;;;;;;;;;;5001241;28;60230;-70
2023/12/14 11:39:27;;;;;;;;;;;;;;;;;;5003812;28;58552;-69
2023/12/14 11:41:52;;;;;;;;;;;;;;;;;;5002886;28;58568;-69
2023/12/14 11:44:17;;;;;;;;;;;;;;;;;;5003353;28;60936;-69
2023/12/14 11:46:42;;;;;;;;;;;;;;;;;;4998154;28;59244;-69
2023/12/14 11:49:07;;;;;;;;;;;;;;;;;;5002488;28;59464;-69
2023/12/14 11:51:32;;;;;;;;;;;;;;;;;;5004035;28;59733;-72
2023/12/14 11:53:58;;;;;;;;;;;;;;;;;;5006627;28;59279;-69
2023/12/14 11:56:24;;;;;;;;;;;;;;;;;;5004499;28;60233;-71
2023/12/14 11:58:49;;;;;;;;;;;;;;;;;;5004338;28;59446;-70
2023/12/14 12:01:15;;;;;;;;;;;;;;;;;;5004890;28;59175;-69
2023/12/14 12:03:40;;;;;;;;;;;;;;;;;;5005357;28;61314;-70
2023/12/14 12:06:05;;;;;;;;;;;;;;;;;;5005910;28;59544;-69
2023/12/14 12:08:30;;;;;;;;;;;;;;;;;;5006688;28;59252;-71
2023/12/14 12:10:55;;;;;;;;;;;;;;;;;;5005689;28;60193;-69
2023/12/14 12:13:20;;;;;;;;;;;;;;;;;;5005855;28;59827;-69
2023/12/14 12:15:45;;;;;;;;;;;;;;;;;;5003253;28;59756;-71
2023/12/14 12:18:10;;;;;;;;;;;;;;;;;;5006156;28;59244;-72
2023/12/14 12:20:35;;;;;;;;;;;;;;;;;;5003416;28;59130;-70
2023/12/14 12:23:00;;;;;;;;;;;;;;;;;;5003673;28;60213;-72
2023/12/14 12:25:27;;;;;;;;;;;;;;;;;;5005822;28;59236;-71
2023/12/14 12:27:53;;;;;;;;;;;;;;;;;;5006615;28;59322;-69
2023/12/14 12:30:18;;;;;;;;;;;;;;;;;;5006787;28;60228;-71
2023/12/14 12:32:44;;;;;;;;;;;;;;;;;;5004337;28;59433;-72
2023/12/14 12:35:09;;;;;;;;;;;;;;;;;;5008083;28;59268;-71
2023/12/14 12:37:34;;;;;;;;;;;;;;;;;;5005340;28;59227;-69
2023/12/14 12:39:59;;;;;;;;;;;;;;;;;;5006391;28;59377;-70
2023/12/14 12:42:25;;;;;;;;;;;;;;;;;;5006219;28;60468;-71
2023/12/14 12:44:50;;;;;;;;;;;;;;;;;;5004736;28;58963;-69
2023/12/14 12:47:15;;;;;;;;;;;;;;;;;;5007121;28;58471;-71
2023/12/14 12:49:40;;;;;;;;;;;;;;;;;;5005423;28;59200;-72
2023/12/14 12:52:05;;;;;;;;;;;;;;;;;;5002992;28;59374;-71
2023/12/14 12:54:31;;;;;;;;;;;;;;;;;;4992668;28;59234;-70
2023/12/14 12:56:56;;;;;;;;;;;;;;;;;;5002854;28;59658;-69
2023/12/14 12:59:21;;;;;;;;;;;;;;;;;;5004079;28;59244;-73
2023/12/14 13:01:47;;;;;;;;;;;;;;;;;;5003948;28;59307;-69
2023/12/14 13:04:12;;;;;;;;;;;;;;;;;;5004849;28;59222;-70
2023/12/14 13:06:37;;;;;;;;;;;;;;;;;;5003777;28;59269;-70
2023/12/14 13:09:02;;;;;;;;;;;;;;;;;;5005149;28;62087;-70
2023/12/14 13:11:27;;;;;;;;;;;;;;;;;;5002521;28;59207;-70
2023/12/14 13:13:52;;;;;;;;;;;;;;;;;;5005649;28;59429;-72
2023/12/14 13:16:17;;;;;;;;;;;;;;;;;;5007018;28;59213;-72
2023/12/14 13:18:43;;;;;;;;;;;;;;;;;;5007212;28;59121;-72
2023/12/14 13:21:08;;;;;;;;;;;;;;;;;;5005250;28;60762;-74
2023/12/14 13:23:33;;;;;;;;;;;;;;;;;;5004421;28;59080;-77
2023/12/14 13:25:58;;;;;;;;;;;;;;;;;;5006435;28;58616;-74
2023/12/14 13:28:23;;;;;;;;;;;;;;;;;;5006214;28;59321;-76
2023/12/14 13:30:48;;;;;;;;;;;;;;;;;;5003921;28;59288;-73
2023/12/14 13:33:14;;;;;;;;;;;;;;;;;;5004698;28;59191;-76
2023/12/14 13:35:39;;;;;;;;;;;;;;;;;;5003525;28;61268;-73
2023/12/14 13:38:04;;;;;;;;;;;;;;;;;;5002891;28;59329;-77
2023/12/14 13:40:29;;;;;;;;;;;;;;;;;;5006138;28;60035;-72
2023/12/14 13:42:54;;;;;;;;;;;;;;;;;;5003397;28;58837;-71
2023/12/14 13:45:19;;;;;;;;;;;;;;;;;;5004874;28;59271;-72
2023/12/14 13:47:44;;;;;;;;;;;;;;;;;;5004690;28;60259;-72
2023/12/14 13:50:10;;;;;;;;;;;;;;;;;;5002636;28;59246;-72
2023/12/14 13:52:35;;;;;;;;;;;;;;;;;;5002370;28;59244;-72
2023/12/14 13:55:00;;;;;;;;;;;;;;;;;;5004001;28;59534;-70
2023/12/14 13:57:25;;;;;;;;;;;;;;;;;;5005235;28;59227;-74
2023/12/14 13:59:50;;;;;;;;;;;;;;;;;;5006153;28;59470;-73
2023/12/14 14:02:15;;;;;;;;;;;;;;;;;;5003603;28;59673;-73
2023/12/14 14:04:40;;;;;;;;;;;;;;;;;;5003736;28;59298;-75
2023/12/14 14:07:06;;;;;;;;;;;;;;;;;;5001501;28;60192;-72
2023/12/14 14:09:32;;;;;;;;;;;;;;;;;;5002614;28;60534;-78
2023/12/14 14:11:57;;;;;;;;;;;;;;;;;;5002852;28;58541;-78
2023/12/14 14:14:23;;;;;;;;;;;;;;;;;;5002272;28;60424;-73
2023/12/14 14:16:48;;;;;;;;;;;;;;;;;;5003768;28;58908;-71
2023/12/14 14:19:13;;;;;;;;;;;;;;;;;;5004193;28;59231;-76
2023/12/14 14:21:38;;;;;;;;;;;;;;;;;;5002251;28;59397;-76
2023/12/14 14:24:03;;;;;;;;;;;;;;;;;;5004128;28;59303;-72
2023/12/14 14:26:28;;;;;;;;;;;;;;;;;;5004800;28;61197;-72
2023/12/14 14:28:59;;;;;;;;;;;;;;;;;;5002967;28;59883;-76
2023/12/14 14:31:25;;;;;;;;;;;;;;;;;;5004532;28;59116;-75
2023/12/14 14:33:50;;;;;;;;;;;;;;;;;;5002482;28;60385;-75
2023/12/14 14:36:15;;;;;;;;;;;;;;;;;;5002514;28;59104;-76
2023/12/14 14:38:40;;;;;;;;;;;;;;;;;;5004230;28;59220;-76
2023/12/14 14:41:05;;;;;;;;;;;;;;;;;;5005799;28;60282;-72
2023/12/14 14:43:30;;;;;;;;;;;;;;;;;;5002817;28;59228;-72
2023/12/14 14:45:55;;;;;;;;;;;;;;;;;;5004691;28;59171;-75
2023/12/14 14:48:20;;;;;;;;;;;;;;;;;;5002348;28;59313;-74
2023/12/14 14:50:45;;;;;;;;;;;;;;;;;;5003805;28;59291;-74
2023/12/14 14:53:12;;;;;;;;;;;;;;;;;;5002510;28;60074;-74
2023/12/14 14:55:37;;;;;;;;;;;;;;;;;;5003127;28;59363;-74
2023/12/14 14:58:02;;;;;;;;;;;;;;;;;;5003392;28;59236;-74
2023/12/14 15:00:28;;;;;;;;;;;;;;;;;;5002302;28;59346;-72
2023/12/14 15:02:53;;;;;;;;;;;;;;;;;;5003498;28;58878;-72
2023/12/14 15:05:18;;;;;;;;;;;;;;;;;;5003810;28;60279;-79
2023/12/14 15:07:43;;;;;;;;;;;;;;;;;;5002166;28;59844;-76
2023/12/14 15:10:08;;;;;;;;;;;;;;;;;;5001618;28;59200;-79
2023/12/14 15:12:33;;;;;;;;;;;;;;;;;;5002976;28;60183;-73
2023/12/14 15:14:58;;;;;;;;;;;;;;;;;;5001715;28;60149;-76
2023/12/14 15:17:23;;;;;;;;;;;;;;;;;;5003144;28;59222;-71
2023/12/14 15:19:49;;;;;;;;;;;;;;;;;;5002449;28;59348;-70
2023/12/14 15:22:14;;;;;;;;;;;;;;;;;;5000072;28;59074;-72
2023/12/14 15:24:39;;;;;;;;;;;;;;;;;;5006633;28;59208;-72
2023/12/14 15:27:04;;;;;;;;;;;;;;;;;;5003324;28;59142;-73
2023/12/14 15:29:29;;;;;;;;;;;;;;;;;;5005525;28;59240;-72
2023/12/14 15:31:54;;;;;;;;;;;;;;;;;;5001380;28;61683;-72
2023/12/14 15:34:19;;;;;;;;;;;;;;;;;;5006296;28;59638;-73
2023/12/14 15:36:44;;;;;;;;;;;;;;;;;;5004175;28;59337;-71
2023/12/14 15:39:09;;;;;;;;;;;;;;;;;;5005128;28;59341;-73
2023/12/14 15:41:34;;;;;;;;;;;;;;;;;;5004168;28;59299;-73
2023/12/14 15:44:00;;;;;;;;;;;;;;;;;;5001481;28;59173;-76
2023/12/14 15:46:25;;;;;;;;;;;;;;;;;;5003955;28;59312;-72
2023/12/14 15:48:50;;;;;;;;;;;;;;;;;;5002912;28;59207;-73
2023/12/14 15:51:15;;;;;;;;;;;;;;;;;;5001958;28;61184;-75
2023/12/14 15:53:41;;;;;;;;;;;;;;;;;;5002435;28;59260;-72
2023/12/14 15:56:06;;;;;;;;;;;;;;;;;;5001134;28;59387;-77
2023/12/14 15:58:31;;;;;;;;;;;;;;;;;;5002597;28;59340;-73
2023/12/14 16:00:56;;;;;;;;;;;;;;;;;;5000834;28;59168;-75
2023/12/14 16:03:21;;;;;;;;;;;;;;;;;;5002814;28;59297;-74
2023/12/14 16:05:46;;;;;;;;;;;;;;;;;;5003668;28;59295;-75
2023/12/14 16:08:11;;;;;;;;;;;;;;;;;;5003976;28;59238;-75
2023/12/14 16:10:36;;;;;;;;;;;;;;;;;;5004217;28;59230;-71
2023/12/14 16:13:01;;;;;;;;;;;;;;;;;;5001730;28;59203;-73
2023/12/14 16:15:26;;;;;;;;;;;;;;;;;;5002749;28;59198;-73
2023/12/14 16:17:51;;;;;;;;;;;;;;;;;;5002044;28;59332;-71
2023/12/14 16:20:18;;;;;;;;;;;;;;;;;;5001859;28;58859;-72
2023/12/14 16:22:43;;;;;;;;;;;;;;;;;;5002327;28;59497;-72
2023/12/14 16:25:09;;;;;;;;;;;;;;;;;;5002753;28;62321;-75
2023/12/14 16:27:34;;;;;;;;;;;;;;;;;;4999678;28;59273;-76
2023/12/14 16:29:59;;;;;;;;;;;;;;;;;;5005417;28;59201;-74
2023/12/14 16:32:25;;;;;;;;;;;;;;;;;;5000120;28;59274;-74